sensor_id;sensor_type;location;lat;lon;timestamp;P1;durP1;ratioP1;P2;durP2;ratioP2
68457;SDS011;65384;52.016;5.428;2022-12-29T00:01:49;3.08;;;1.75;;
68457;SDS011;65384;52.016;5.428;2022-12-29T00:04:15;2.20;;;1.58;;
68457;SDS011;65384;52.016;5.428;2022-12-29T00:06:41;2.60;;;1.60;;
68457;SDS011;65384;52.016;5.428;2022-12-29T00:09:07;3.95;;;1.95;;
68457;SDS011;65384;52.016;5.428;2022-12-29T00:11:33;3.90;;;1.90;;
68457;SDS011;65384;52.016;5.428;2022-12-29T00:13:58;3.30;;;1.98;;
68457;SDS011;65384;52.016;5.428;2022-12-29T00:16:43;3.80;;;1.92;;
68457;SDS011;65384;52.016;5.428;2022-12-29T00:19:09;3.65;;;2.20;;
68457;SDS011;65384;52.016;5.428;2022-12-29T00:21:55;2.40;;;1.60;;
68457;SDS011;65384;52.016;5.428;2022-12-29T00:24:39;5.07;;;2.15;;
68457;SDS011;65384;52.016;5.428;2022-12-29T00:27:22;2.55;;;1.38;;
68457;SDS011;65384;52.016;5.428;2022-12-29T00:30:10;5.20;;;1.80;;
68457;SDS011;65384;52.016;5.428;2022-12-29T00:32:55;3.95;;;1.92;;
68457;SDS011;65384;52.016;5.428;2022-12-29T00:35:41;3.22;;;1.77;;
68457;SDS011;65384;52.016;5.428;2022-12-29T00:38:11;2.95;;;1.75;;
68457;SDS011;65384;52.016;5.428;2022-12-29T00:40:56;2.63;;;1.50;;
68457;SDS011;65384;52.016;5.428;2022-12-29T00:43:40;4.10;;;1.58;;
68457;SDS011;65384;52.016;5.428;2022-12-29T00:46:23;3.30;;;1.90;;
68457;SDS011;65384;52.016;5.428;2022-12-29T00:48:49;3.28;;;1.60;;
68457;SDS011;65384;52.016;5.428;2022-12-29T00:51:33;4.13;;;1.80;;
68457;SDS011;65384;52.016;5.428;2022-12-29T00:53:58;2.72;;;1.48;;
68457;SDS011;65384;52.016;5.428;2022-12-29T00:56:23;3.15;;;1.30;;
68457;SDS011;65384;52.016;5.428;2022-12-29T00:58:49;1.95;;;1.38;;
68457;SDS011;65384;52.016;5.428;2022-12-29T01:01:14;2.22;;;1.40;;
68457;SDS011;65384;52.016;5.428;2022-12-29T01:03:40;3.08;;;1.63;;
68457;SDS011;65384;52.016;5.428;2022-12-29T01:06:06;2.47;;;1.45;;
68457;SDS011;65384;52.016;5.428;2022-12-29T01:08:33;2.00;;;1.30;;
68457;SDS011;65384;52.016;5.428;2022-12-29T01:10:59;2.95;;;1.00;;
68457;SDS011;65384;52.016;5.428;2022-12-29T01:13:25;2.58;;;1.10;;
68457;SDS011;65384;52.016;5.428;2022-12-29T01:15:51;2.65;;;1.20;;
68457;SDS011;65384;52.016;5.428;2022-12-29T01:18:17;2.78;;;1.02;;
68457;SDS011;65384;52.016;5.428;2022-12-29T01:20:43;2.53;;;1.42;;
68457;SDS011;65384;52.016;5.428;2022-12-29T01:23:08;2.55;;;0.90;;
68457;SDS011;65384;52.016;5.428;2022-12-29T01:25:33;1.38;;;1.10;;
68457;SDS011;65384;52.016;5.428;2022-12-29T01:27:59;1.45;;;0.88;;
68457;SDS011;65384;52.016;5.428;2022-12-29T01:30:24;4.43;;;1.25;;
68457;SDS011;65384;52.016;5.428;2022-12-29T01:32:49;2.05;;;1.20;;
68457;SDS011;65384;52.016;5.428;2022-12-29T01:35:15;1.85;;;1.10;;
68457;SDS011;65384;52.016;5.428;2022-12-29T01:37:40;1.70;;;1.10;;
68457;SDS011;65384;52.016;5.428;2022-12-29T01:40:05;3.30;;;0.93;;
68457;SDS011;65384;52.016;5.428;2022-12-29T01:42:31;2.05;;;1.15;;
68457;SDS011;65384;52.016;5.428;2022-12-29T01:44:57;3.00;;;1.50;;
68457;SDS011;65384;52.016;5.428;2022-12-29T01:47:33;3.05;;;1.67;;
68457;SDS011;65384;52.016;5.428;2022-12-29T01:50:05;2.45;;;1.55;;
68457;SDS011;65384;52.016;5.428;2022-12-29T01:52:32;4.50;;;1.35;;
68457;SDS011;65384;52.016;5.428;2022-12-29T01:54:59;2.25;;;1.48;;
68457;SDS011;65384;52.016;5.428;2022-12-29T01:57:29;3.08;;;1.58;;
68457;SDS011;65384;52.016;5.428;2022-12-29T02:00:00;2.15;;;1.30;;
68457;SDS011;65384;52.016;5.428;2022-12-29T02:02:28;2.33;;;1.52;;
68457;SDS011;65384;52.016;5.428;2022-12-29T02:04:54;2.70;;;1.50;;
68457;SDS011;65384;52.016;5.428;2022-12-29T02:07:21;4.00;;;2.00;;
68457;SDS011;65384;52.016;5.428;2022-12-29T02:09:48;2.45;;;1.48;;
68457;SDS011;65384;52.016;5.428;2022-12-29T02:12:14;4.07;;;1.70;;
68457;SDS011;65384;52.016;5.428;2022-12-29T02:14:41;1.83;;;1.30;;
68457;SDS011;65384;52.016;5.428;2022-12-29T02:39:15;1.00;;;0.80;;
68457;SDS011;65384;52.016;5.428;2022-12-29T02:44:14;2.47;;;1.00;;
68457;SDS011;65384;52.016;5.428;2022-12-29T02:47:02;1.05;;;0.82;;
68457;SDS011;65384;52.016;5.428;2022-12-29T02:52:35;1.70;;;0.90;;
68457;SDS011;65384;52.016;5.428;2022-12-29T02:55:05;3.50;;;1.10;;
68457;SDS011;65384;52.016;5.428;2022-12-29T02:57:35;3.15;;;1.42;;
68457;SDS011;65384;52.016;5.428;2022-12-29T03:00:11;1.73;;;1.27;;
68457;SDS011;65384;52.016;5.428;2022-12-29T03:05:35;3.33;;;1.77;;
68457;SDS011;65384;52.016;5.428;2022-12-29T03:08:15;3.03;;;1.80;;
68457;SDS011;65384;52.016;5.428;2022-12-29T03:13:55;5.32;;;2.00;;
68457;SDS011;65384;52.016;5.428;2022-12-29T03:16:53;1.60;;;1.20;;
68457;SDS011;65384;52.016;5.428;2022-12-29T03:19:30;2.92;;;1.30;;
68457;SDS011;65384;52.016;5.428;2022-12-29T03:22:02;2.92;;;1.35;;
68457;SDS011;65384;52.016;5.428;2022-12-29T03:24:52;1.60;;;1.00;;
68457;SDS011;65384;52.016;5.428;2022-12-29T03:27:21;1.33;;;0.90;;
68457;SDS011;65384;52.016;5.428;2022-12-29T03:29:50;2.17;;;0.80;;
68457;SDS011;65384;52.016;5.428;2022-12-29T03:32:26;2.67;;;0.93;;
68457;SDS011;65384;52.016;5.428;2022-12-29T03:34:55;2.00;;;0.90;;
68457;SDS011;65384;52.016;5.428;2022-12-29T03:37:22;1.83;;;0.98;;
68457;SDS011;65384;52.016;5.428;2022-12-29T03:39:49;1.70;;;0.90;;
68457;SDS011;65384;52.016;5.428;2022-12-29T03:42:16;2.05;;;1.17;;
68457;SDS011;65384;52.016;5.428;2022-12-29T03:44:44;3.63;;;1.08;;
68457;SDS011;65384;52.016;5.428;2022-12-29T03:47:10;2.72;;;1.10;;
68457;SDS011;65384;52.016;5.428;2022-12-29T03:49:37;2.85;;;1.05;;
68457;SDS011;65384;52.016;5.428;2022-12-29T03:52:02;4.55;;;1.17;;
68457;SDS011;65384;52.016;5.428;2022-12-29T03:54:28;2.55;;;1.40;;
68457;SDS011;65384;52.016;5.428;2022-12-29T03:56:54;1.58;;;1.17;;
68457;SDS011;65384;52.016;5.428;2022-12-29T03:59:19;1.85;;;1.13;;
68457;SDS011;65384;52.016;5.428;2022-12-29T04:01:45;3.33;;;1.30;;
68457;SDS011;65384;52.016;5.428;2022-12-29T04:04:11;4.32;;;1.75;;
68457;SDS011;65384;52.016;5.428;2022-12-29T04:06:36;2.97;;;1.60;;
68457;SDS011;65384;52.016;5.428;2022-12-29T04:09:02;5.20;;;1.60;;
68457;SDS011;65384;52.016;5.428;2022-12-29T04:11:27;4.78;;;1.80;;
68457;SDS011;65384;52.016;5.428;2022-12-29T04:13:53;2.47;;;1.30;;
68457;SDS011;65384;52.016;5.428;2022-12-29T04:16:18;4.13;;;1.17;;
68457;SDS011;65384;52.016;5.428;2022-12-29T04:18:43;2.85;;;1.20;;
68457;SDS011;65384;52.016;5.428;2022-12-29T04:21:09;6.18;;;1.20;;
68457;SDS011;65384;52.016;5.428;2022-12-29T04:23:35;3.42;;;0.90;;
68457;SDS011;65384;52.016;5.428;2022-12-29T04:26:02;5.88;;;1.20;;
68457;SDS011;65384;52.016;5.428;2022-12-29T04:28:29;4.15;;;1.10;;
68457;SDS011;65384;52.016;5.428;2022-12-29T04:30:55;3.42;;;0.90;;
68457;SDS011;65384;52.016;5.428;2022-12-29T04:33:20;4.80;;;1.00;;
68457;SDS011;65384;52.016;5.428;2022-12-29T04:35:46;3.00;;;0.90;;
68457;SDS011;65384;52.016;5.428;2022-12-29T04:38:12;3.03;;;0.90;;
68457;SDS011;65384;52.016;5.428;2022-12-29T04:40:38;8.70;;;0.90;;
68457;SDS011;65384;52.016;5.428;2022-12-29T04:43:04;8.40;;;1.00;;
68457;SDS011;65384;52.016;5.428;2022-12-29T04:45:30;6.57;;;0.90;;
68457;SDS011;65384;52.016;5.428;2022-12-29T04:47:55;11.38;;;1.15;;
68457;SDS011;65384;52.016;5.428;2022-12-29T04:50:21;4.57;;;0.90;;
68457;SDS011;65384;52.016;5.428;2022-12-29T04:52:46;3.03;;;0.70;;
68457;SDS011;65384;52.016;5.428;2022-12-29T04:55:12;3.63;;;0.75;;
68457;SDS011;65384;52.016;5.428;2022-12-29T04:57:37;5.60;;;1.02;;
68457;SDS011;65384;52.016;5.428;2022-12-29T05:00:03;3.88;;;0.80;;
68457;SDS011;65384;52.016;5.428;2022-12-29T05:02:29;4.90;;;0.80;;
68457;SDS011;65384;52.016;5.428;2022-12-29T05:04:54;6.25;;;1.17;;
68457;SDS011;65384;52.016;5.428;2022-12-29T05:07:19;5.05;;;0.82;;
68457;SDS011;65384;52.016;5.428;2022-12-29T05:09:44;4.00;;;1.30;;
68457;SDS011;65384;52.016;5.428;2022-12-29T05:12:10;10.50;;;1.23;;
68457;SDS011;65384;52.016;5.428;2022-12-29T05:14:35;4.45;;;0.80;;
68457;SDS011;65384;52.016;5.428;2022-12-29T05:17:00;6.88;;;1.25;;
68457;SDS011;65384;52.016;5.428;2022-12-29T05:19:26;5.38;;;0.90;;
68457;SDS011;65384;52.016;5.428;2022-12-29T05:21:51;7.22;;;0.93;;
68457;SDS011;65384;52.016;5.428;2022-12-29T05:24:17;4.80;;;0.88;;
68457;SDS011;65384;52.016;5.428;2022-12-29T05:26:42;5.70;;;0.80;;
68457;SDS011;65384;52.016;5.428;2022-12-29T05:29:07;5.63;;;1.08;;
68457;SDS011;65384;52.016;5.428;2022-12-29T05:31:33;6.13;;;0.80;;
68457;SDS011;65384;52.016;5.428;2022-12-29T05:34:00;3.30;;;0.60;;
68457;SDS011;65384;52.016;5.428;2022-12-29T05:36:25;3.83;;;1.05;;
68457;SDS011;65384;52.016;5.428;2022-12-29T05:38:51;3.63;;;0.57;;
68457;SDS011;65384;52.016;5.428;2022-12-29T05:41:16;3.90;;;0.70;;
68457;SDS011;65384;52.016;5.428;2022-12-29T05:43:41;4.50;;;0.93;;
68457;SDS011;65384;52.016;5.428;2022-12-29T05:46:07;6.28;;;1.35;;
68457;SDS011;65384;52.016;5.428;2022-12-29T05:48:32;3.55;;;0.90;;
68457;SDS011;65384;52.016;5.428;2022-12-29T05:50:57;3.70;;;0.70;;
68457;SDS011;65384;52.016;5.428;2022-12-29T05:53:23;5.28;;;0.60;;
68457;SDS011;65384;52.016;5.428;2022-12-29T05:55:48;4.63;;;0.98;;
68457;SDS011;65384;52.016;5.428;2022-12-29T05:58:17;8.50;;;1.35;;
68457;SDS011;65384;52.016;5.428;2022-12-29T06:00:43;7.97;;;0.82;;
68457;SDS011;65384;52.016;5.428;2022-12-29T06:03:08;8.27;;;2.00;;
68457;SDS011;65384;52.016;5.428;2022-12-29T06:05:34;5.45;;;0.80;;
68457;SDS011;65384;52.016;5.428;2022-12-29T06:07:59;3.53;;;0.93;;
68457;SDS011;65384;52.016;5.428;2022-12-29T06:10:24;3.78;;;0.98;;
68457;SDS011;65384;52.016;5.428;2022-12-29T06:12:50;3.53;;;1.00;;
68457;SDS011;65384;52.016;5.428;2022-12-29T06:15:15;5.22;;;1.00;;
68457;SDS011;65384;52.016;5.428;2022-12-29T06:17:41;5.40;;;0.95;;
68457;SDS011;65384;52.016;5.428;2022-12-29T06:20:07;4.18;;;1.00;;
68457;SDS011;65384;52.016;5.428;2022-12-29T06:22:33;8.35;;;1.15;;
68457;SDS011;65384;52.016;5.428;2022-12-29T06:24:59;5.95;;;0.90;;
68457;SDS011;65384;52.016;5.428;2022-12-29T06:27:24;7.30;;;1.10;;
68457;SDS011;65384;52.016;5.428;2022-12-29T06:29:49;5.30;;;1.20;;
68457;SDS011;65384;52.016;5.428;2022-12-29T06:32:15;6.55;;;1.30;;
68457;SDS011;65384;52.016;5.428;2022-12-29T06:34:40;8.52;;;1.17;;
68457;SDS011;65384;52.016;5.428;2022-12-29T06:37:06;2.58;;;0.70;;
68457;SDS011;65384;52.016;5.428;2022-12-29T06:39:31;7.40;;;1.10;;
68457;SDS011;65384;52.016;5.428;2022-12-29T06:41:57;3.83;;;1.13;;
68457;SDS011;65384;52.016;5.428;2022-12-29T06:44:22;8.50;;;1.05;;
68457;SDS011;65384;52.016;5.428;2022-12-29T06:46:48;10.88;;;1.30;;
68457;SDS011;65384;52.016;5.428;2022-12-29T06:49:13;7.00;;;0.80;;
68457;SDS011;65384;52.016;5.428;2022-12-29T06:51:39;2.40;;;0.80;;
68457;SDS011;65384;52.016;5.428;2022-12-29T06:54:04;7.10;;;1.10;;
68457;SDS011;65384;52.016;5.428;2022-12-29T06:56:30;4.57;;;0.90;;
68457;SDS011;65384;52.016;5.428;2022-12-29T06:58:55;5.65;;;0.93;;
68457;SDS011;65384;52.016;5.428;2022-12-29T07:01:20;8.70;;;0.93;;
68457;SDS011;65384;52.016;5.428;2022-12-29T07:03:46;5.80;;;0.90;;
68457;SDS011;65384;52.016;5.428;2022-12-29T07:06:11;3.33;;;1.15;;
68457;SDS011;65384;52.016;5.428;2022-12-29T07:08:36;4.50;;;0.80;;
68457;SDS011;65384;52.016;5.428;2022-12-29T07:11:02;6.60;;;0.80;;
68457;SDS011;65384;52.016;5.428;2022-12-29T07:13:27;9.10;;;1.13;;
68457;SDS011;65384;52.016;5.428;2022-12-29T07:15:53;11.70;;;0.90;;
68457;SDS011;65384;52.016;5.428;2022-12-29T07:18:18;6.43;;;1.17;;
68457;SDS011;65384;52.016;5.428;2022-12-29T07:20:44;7.25;;;1.33;;
68457;SDS011;65384;52.016;5.428;2022-12-29T07:23:09;5.53;;;1.10;;
68457;SDS011;65384;52.016;5.428;2022-12-29T07:25:35;11.15;;;1.38;;
68457;SDS011;65384;52.016;5.428;2022-12-29T07:28:01;9.05;;;1.17;;
68457;SDS011;65384;52.016;5.428;2022-12-29T07:30:27;7.57;;;1.10;;
68457;SDS011;65384;52.016;5.428;2022-12-29T07:32:52;8.20;;;1.40;;
68457;SDS011;65384;52.016;5.428;2022-12-29T07:35:17;14.98;;;1.70;;
68457;SDS011;65384;52.016;5.428;2022-12-29T07:37:43;10.65;;;1.60;;
68457;SDS011;65384;52.016;5.428;2022-12-29T07:40:09;4.85;;;1.35;;
68457;SDS011;65384;52.016;5.428;2022-12-29T07:42:34;9.48;;;1.48;;
68457;SDS011;65384;52.016;5.428;2022-12-29T07:45:00;7.80;;;1.60;;
68457;SDS011;65384;52.016;5.428;2022-12-29T07:47:25;8.88;;;1.60;;
68457;SDS011;65384;52.016;5.428;2022-12-29T07:49:51;9.73;;;1.73;;
68457;SDS011;65384;52.016;5.428;2022-12-29T07:52:16;4.75;;;1.63;;
68457;SDS011;65384;52.016;5.428;2022-12-29T07:54:42;6.95;;;1.70;;
68457;SDS011;65384;52.016;5.428;2022-12-29T07:57:07;12.93;;;1.70;;
68457;SDS011;65384;52.016;5.428;2022-12-29T07:59:32;4.03;;;0.98;;
68457;SDS011;65384;52.016;5.428;2022-12-29T08:01:58;5.15;;;1.38;;
68457;SDS011;65384;52.016;5.428;2022-12-29T08:04:23;6.80;;;1.58;;
68457;SDS011;65384;52.016;5.428;2022-12-29T08:06:48;6.05;;;1.50;;
68457;SDS011;65384;52.016;5.428;2022-12-29T08:09:14;6.10;;;1.23;;
68457;SDS011;65384;52.016;5.428;2022-12-29T08:11:39;12.32;;;1.60;;
68457;SDS011;65384;52.016;5.428;2022-12-29T08:14:05;8.70;;;1.48;;
68457;SDS011;65384;52.016;5.428;2022-12-29T08:16:31;9.30;;;1.55;;
68457;SDS011;65384;52.016;5.428;2022-12-29T08:18:57;8.02;;;1.30;;
68457;SDS011;65384;52.016;5.428;2022-12-29T08:21:23;8.27;;;1.10;;
68457;SDS011;65384;52.016;5.428;2022-12-29T08:23:49;7.72;;;1.30;;
68457;SDS011;65384;52.016;5.428;2022-12-29T08:26:14;5.88;;;1.00;;
68457;SDS011;65384;52.016;5.428;2022-12-29T08:28:40;7.90;;;1.02;;
68457;SDS011;65384;52.016;5.428;2022-12-29T08:31:05;5.18;;;1.05;;
68457;SDS011;65384;52.016;5.428;2022-12-29T08:33:30;8.73;;;1.10;;
68457;SDS011;65384;52.016;5.428;2022-12-29T08:36:00;4.18;;;1.00;;
68457;SDS011;65384;52.016;5.428;2022-12-29T08:38:26;9.30;;;1.10;;
68457;SDS011;65384;52.016;5.428;2022-12-29T08:40:52;13.27;;;2.45;;
68457;SDS011;65384;52.016;5.428;2022-12-29T08:43:18;9.73;;;1.20;;
68457;SDS011;65384;52.016;5.428;2022-12-29T08:45:43;8.50;;;1.45;;
68457;SDS011;65384;52.016;5.428;2022-12-29T08:48:08;7.78;;;1.08;;
68457;SDS011;65384;52.016;5.428;2022-12-29T08:50:34;6.72;;;1.30;;
68457;SDS011;65384;52.016;5.428;2022-12-29T08:52:59;5.63;;;0.77;;
68457;SDS011;65384;52.016;5.428;2022-12-29T08:55:25;8.02;;;1.23;;
68457;SDS011;65384;52.016;5.428;2022-12-29T08:57:50;4.72;;;0.90;;
68457;SDS011;65384;52.016;5.428;2022-12-29T09:00:17;10.27;;;1.20;;
68457;SDS011;65384;52.016;5.428;2022-12-29T09:02:42;6.72;;;1.17;;
68457;SDS011;65384;52.016;5.428;2022-12-29T09:05:08;8.45;;;1.42;;
68457;SDS011;65384;52.016;5.428;2022-12-29T09:07:34;6.07;;;1.20;;
68457;SDS011;65384;52.016;5.428;2022-12-29T09:10:00;7.97;;;1.20;;
68457;SDS011;65384;52.016;5.428;2022-12-29T09:12:25;7.07;;;1.60;;
68457;SDS011;65384;52.016;5.428;2022-12-29T09:14:50;11.27;;;1.92;;
68457;SDS011;65384;52.016;5.428;2022-12-29T09:17:16;6.20;;;1.15;;
68457;SDS011;65384;52.016;5.428;2022-12-29T09:19:59;12.20;;;1.33;;
68457;SDS011;65384;52.016;5.428;2022-12-29T09:22:25;9.18;;;1.35;;
68457;SDS011;65384;52.016;5.428;2022-12-29T09:24:50;10.55;;;1.77;;
68457;SDS011;65384;52.016;5.428;2022-12-29T09:27:15;9.30;;;1.25;;
68457;SDS011;65384;52.016;5.428;2022-12-29T09:29:41;11.07;;;1.55;;
68457;SDS011;65384;52.016;5.428;2022-12-29T09:32:06;7.10;;;1.25;;
68457;SDS011;65384;52.016;5.428;2022-12-29T09:34:32;8.00;;;1.15;;
68457;SDS011;65384;52.016;5.428;2022-12-29T09:36:57;10.32;;;1.42;;
68457;SDS011;65384;52.016;5.428;2022-12-29T09:39:23;9.95;;;1.58;;
68457;SDS011;65384;52.016;5.428;2022-12-29T09:41:49;4.85;;;1.13;;
68457;SDS011;65384;52.016;5.428;2022-12-29T09:47:09;10.68;;;1.50;;
68457;SDS011;65384;52.016;5.428;2022-12-29T09:49:43;9.60;;;1.60;;
68457;SDS011;65384;52.016;5.428;2022-12-29T09:52:36;10.05;;;1.40;;
68457;SDS011;65384;52.016;5.428;2022-12-29T09:55:08;9.73;;;1.52;;
68457;SDS011;65384;52.016;5.428;2022-12-29T09:57:39;10.27;;;1.67;;
68457;SDS011;65384;52.016;5.428;2022-12-29T10:00:13;6.03;;;1.40;;
68457;SDS011;65384;52.016;5.428;2022-12-29T10:02:40;7.50;;;1.40;;
68457;SDS011;65384;52.016;5.428;2022-12-29T10:10:55;8.00;;;1.40;;
68457;SDS011;65384;52.016;5.428;2022-12-29T10:16:20;5.88;;;1.45;;
68457;SDS011;65384;52.016;5.428;2022-12-29T10:19:07;6.25;;;1.52;;
68457;SDS011;65384;52.016;5.428;2022-12-29T10:24:39;7.18;;;1.85;;
68457;SDS011;65384;52.016;5.428;2022-12-29T10:27:05;6.15;;;1.90;;
68457;SDS011;65384;52.016;5.428;2022-12-29T10:29:37;9.88;;;2.40;;
68457;SDS011;65384;52.016;5.428;2022-12-29T10:32:52;6.25;;;1.45;;
68457;SDS011;65384;52.016;5.428;2022-12-29T10:35:21;6.90;;;1.45;;
68457;SDS011;65384;52.016;5.428;2022-12-29T10:40:48;15.73;;;2.00;;
68457;SDS011;65384;52.016;5.428;2022-12-29T10:45:51;10.40;;;1.80;;
68457;SDS011;65384;52.016;5.428;2022-12-29T10:48:22;10.02;;;2.28;;
68457;SDS011;65384;52.016;5.428;2022-12-29T10:53:19;11.20;;;1.70;;
68457;SDS011;65384;52.016;5.428;2022-12-29T10:55:46;8.25;;;2.05;;
68457;SDS011;65384;52.016;5.428;2022-12-29T10:58:12;10.55;;;2.63;;
68457;SDS011;65384;52.016;5.428;2022-12-29T11:00:38;10.65;;;2.35;;
68457;SDS011;65384;52.016;5.428;2022-12-29T11:05:49;7.05;;;2.42;;
68457;SDS011;65384;52.016;5.428;2022-12-29T11:10:45;11.38;;;2.95;;
68457;SDS011;65384;52.016;5.428;2022-12-29T11:15:53;12.82;;;3.10;;
68457;SDS011;65384;52.016;5.428;2022-12-29T11:18:25;11.48;;;2.60;;
68457;SDS011;65384;52.016;5.428;2022-12-29T11:20:56;12.02;;;2.55;;
68457;SDS011;65384;52.016;5.428;2022-12-29T11:23:28;15.38;;;2.78;;
68457;SDS011;65384;52.016;5.428;2022-12-29T11:28:36;15.82;;;2.80;;
68457;SDS011;65384;52.016;5.428;2022-12-29T11:31:06;12.27;;;2.83;;
68457;SDS011;65384;52.016;5.428;2022-12-29T11:33:33;14.38;;;3.30;;
68457;SDS011;65384;52.016;5.428;2022-12-29T11:36:07;12.75;;;3.22;;
68457;SDS011;65384;52.016;5.428;2022-12-29T11:38:37;15.95;;;2.88;;
68457;SDS011;65384;52.016;5.428;2022-12-29T11:41:18;10.15;;;2.88;;
68457;SDS011;65384;52.016;5.428;2022-12-29T11:43:46;9.80;;;2.47;;
68457;SDS011;65384;52.016;5.428;2022-12-29T11:46:33;8.00;;;2.30;;
68457;SDS011;65384;52.016;5.428;2022-12-29T11:48:59;9.20;;;1.67;;
68457;SDS011;65384;52.016;5.428;2022-12-29T11:51:39;5.95;;;1.15;;
68457;SDS011;65384;52.016;5.428;2022-12-29T11:54:31;6.65;;;1.50;;
68457;SDS011;65384;52.016;5.428;2022-12-29T11:57:07;4.82;;;1.40;;
68457;SDS011;65384;52.016;5.428;2022-12-29T11:59:36;7.38;;;1.67;;
68457;SDS011;65384;52.016;5.428;2022-12-29T12:02:11;10.35;;;1.95;;
68457;SDS011;65384;52.016;5.428;2022-12-29T12:04:43;14.40;;;2.55;;
68457;SDS011;65384;52.016;5.428;2022-12-29T12:09:46;14.82;;;3.03;;
68457;SDS011;65384;52.016;5.428;2022-12-29T12:12:21;16.08;;;3.05;;
68457;SDS011;65384;52.016;5.428;2022-12-29T12:14:56;10.38;;;2.35;;
68457;SDS011;65384;52.016;5.428;2022-12-29T12:22:53;16.13;;;2.42;;
68457;SDS011;65384;52.016;5.428;2022-12-29T12:25:24;14.43;;;2.33;;
68457;SDS011;65384;52.016;5.428;2022-12-29T12:27:57;16.55;;;2.65;;
68457;SDS011;65384;52.016;5.428;2022-12-29T12:30:40;17.58;;;3.10;;
68457;SDS011;65384;52.016;5.428;2022-12-29T12:35:46;9.18;;;1.95;;
68457;SDS011;65384;52.016;5.428;2022-12-29T12:43:38;12.88;;;2.50;;
68457;SDS011;65384;52.016;5.428;2022-12-29T12:46:25;13.18;;;2.33;;
68457;SDS011;65384;52.016;5.428;2022-12-29T12:57:41;13.32;;;2.10;;
68457;SDS011;65384;52.016;5.428;2022-12-29T13:00:16;13.02;;;2.42;;
68457;SDS011;65384;52.016;5.428;2022-12-29T13:08:28;12.68;;;2.50;;
68457;SDS011;65384;52.016;5.428;2022-12-29T13:16:39;15.20;;;2.80;;
68457;SDS011;65384;52.016;5.428;2022-12-29T13:28:21;12.65;;;3.08;;
68457;SDS011;65384;52.016;5.428;2022-12-29T13:31:00;13.43;;;2.97;;
68457;SDS011;65384;52.016;5.428;2022-12-29T13:36:29;13.15;;;2.28;;
68457;SDS011;65384;52.016;5.428;2022-12-29T13:41:58;14.65;;;2.85;;
68457;SDS011;65384;52.016;5.428;2022-12-29T13:44:25;17.23;;;2.28;;
68457;SDS011;65384;52.016;5.428;2022-12-29T13:46:54;12.10;;;2.00;;
68457;SDS011;65384;52.016;5.428;2022-12-29T13:49:22;9.20;;;2.10;;
68457;SDS011;65384;52.016;5.428;2022-12-29T13:54:36;11.68;;;2.20;;
68457;SDS011;65384;52.016;5.428;2022-12-29T13:59:50;13.50;;;2.13;;
68457;SDS011;65384;52.016;5.428;2022-12-29T14:02:24;12.35;;;2.30;;
68457;SDS011;65384;52.016;5.428;2022-12-29T14:07:45;7.20;;;1.45;;
68457;SDS011;65384;52.016;5.428;2022-12-29T14:13:10;2.25;;;0.80;;
68457;SDS011;65384;52.016;5.428;2022-12-29T14:15:38;5.25;;;1.10;;
68457;SDS011;65384;52.016;5.428;2022-12-29T14:18:15;5.90;;;0.90;;
68457;SDS011;65384;52.016;5.428;2022-12-29T14:20:59;6.82;;;1.40;;
68457;SDS011;65384;52.016;5.428;2022-12-29T14:28:34;4.15;;;1.10;;
68457;SDS011;65384;52.016;5.428;2022-12-29T14:31:01;3.03;;;0.85;;
68457;SDS011;65384;52.016;5.428;2022-12-29T14:33:31;6.05;;;1.10;;
68457;SDS011;65384;52.016;5.428;2022-12-29T14:36:18;5.32;;;1.50;;
68457;SDS011;65384;52.016;5.428;2022-12-29T14:38:48;7.05;;;1.42;;
68457;SDS011;65384;52.016;5.428;2022-12-29T14:41:26;6.00;;;1.42;;
68457;SDS011;65384;52.016;5.428;2022-12-29T14:43:55;9.40;;;2.17;;
68457;SDS011;65384;52.016;5.428;2022-12-29T14:46:23;8.98;;;2.38;;
68457;SDS011;65384;52.016;5.428;2022-12-29T14:48:52;10.27;;;2.35;;
68457;SDS011;65384;52.016;5.428;2022-12-29T14:51:21;10.00;;;1.98;;
68457;SDS011;65384;52.016;5.428;2022-12-29T14:53:53;5.63;;;1.75;;
68457;SDS011;65384;52.016;5.428;2022-12-29T14:56:19;7.90;;;2.20;;
68457;SDS011;65384;52.016;5.428;2022-12-29T14:59:22;5.05;;;1.88;;
68457;SDS011;65384;52.016;5.428;2022-12-29T15:01:48;10.48;;;2.30;;
68457;SDS011;65384;52.016;5.428;2022-12-29T15:04:20;8.98;;;2.78;;
68457;SDS011;65384;52.016;5.428;2022-12-29T15:06:48;10.85;;;2.80;;
68457;SDS011;65384;52.016;5.428;2022-12-29T15:11:56;9.35;;;2.40;;
68457;SDS011;65384;52.016;5.428;2022-12-29T15:16:59;6.85;;;2.00;;
68457;SDS011;65384;52.016;5.428;2022-12-29T15:19:25;7.50;;;2.40;;
68457;SDS011;65384;52.016;5.428;2022-12-29T15:21:52;12.02;;;2.50;;
68457;SDS011;65384;52.016;5.428;2022-12-29T15:24:18;9.02;;;2.47;;
68457;SDS011;65384;52.016;5.428;2022-12-29T15:26:49;10.00;;;2.80;;
68457;SDS011;65384;52.016;5.428;2022-12-29T15:32:16;6.00;;;1.58;;
68457;SDS011;65384;52.016;5.428;2022-12-29T15:34:50;6.65;;;2.20;;
68457;SDS011;65384;52.016;5.428;2022-12-29T15:37:22;8.45;;;2.58;;
68457;SDS011;65384;52.016;5.428;2022-12-29T15:39:48;8.10;;;2.35;;
68457;SDS011;65384;52.016;5.428;2022-12-29T15:42:32;8.68;;;2.05;;
68457;SDS011;65384;52.016;5.428;2022-12-29T15:45:05;8.82;;;2.13;;
68457;SDS011;65384;52.016;5.428;2022-12-29T15:47:31;13.68;;;2.30;;
68457;SDS011;65384;52.016;5.428;2022-12-29T15:50:04;10.38;;;2.10;;
68457;SDS011;65384;52.016;5.428;2022-12-29T15:52:31;7.28;;;2.17;;
68457;SDS011;65384;52.016;5.428;2022-12-29T15:54:58;7.53;;;2.60;;
68457;SDS011;65384;52.016;5.428;2022-12-29T15:59:51;9.77;;;2.58;;
68457;SDS011;65384;52.016;5.428;2022-12-29T16:02:16;5.65;;;1.83;;
68457;SDS011;65384;52.016;5.428;2022-12-29T16:04:42;11.55;;;2.63;;
68457;SDS011;65384;52.016;5.428;2022-12-29T16:09:57;6.30;;;1.77;;
68457;SDS011;65384;52.016;5.428;2022-12-29T16:12:31;7.20;;;2.00;;
68457;SDS011;65384;52.016;5.428;2022-12-29T16:14:59;6.57;;;1.80;;
68457;SDS011;65384;52.016;5.428;2022-12-29T16:17:28;6.60;;;1.40;;
68457;SDS011;65384;52.016;5.428;2022-12-29T16:20:02;6.53;;;1.30;;
68457;SDS011;65384;52.016;5.428;2022-12-29T16:22:35;7.97;;;1.63;;
68457;SDS011;65384;52.016;5.428;2022-12-29T16:25:03;5.43;;;1.50;;
68457;SDS011;65384;52.016;5.428;2022-12-29T16:27:39;5.55;;;1.10;;
68457;SDS011;65384;52.016;5.428;2022-12-29T16:30:07;10.05;;;1.30;;
68457;SDS011;65384;52.016;5.428;2022-12-29T16:32:46;7.13;;;1.10;;
68457;SDS011;65384;52.016;5.428;2022-12-29T16:35:28;3.75;;;1.15;;
68457;SDS011;65384;52.016;5.428;2022-12-29T16:38:37;4.00;;;1.20;;
68457;SDS011;65384;52.016;5.428;2022-12-29T16:40:57;4.40;;;1.23;;
68457;SDS011;65384;52.016;5.428;2022-12-29T16:43:28;8.80;;;1.60;;
68457;SDS011;65384;52.016;5.428;2022-12-29T16:48:35;6.78;;;1.88;;
68457;SDS011;65384;52.016;5.428;2022-12-29T16:51:11;9.02;;;2.40;;
68457;SDS011;65384;52.016;5.428;2022-12-29T16:53:39;13.85;;;3.42;;
68457;SDS011;65384;52.016;5.428;2022-12-29T16:56:13;11.77;;;2.83;;
68457;SDS011;65384;52.016;5.428;2022-12-29T16:58:40;10.18;;;2.30;;
68457;SDS011;65384;52.016;5.428;2022-12-29T17:01:06;8.50;;;2.20;;
68457;SDS011;65384;52.016;5.428;2022-12-29T17:03:44;11.10;;;3.08;;
68457;SDS011;65384;52.016;5.428;2022-12-29T17:06:22;10.80;;;2.63;;
68457;SDS011;65384;52.016;5.428;2022-12-29T17:08:48;14.13;;;3.28;;
68457;SDS011;65384;52.016;5.428;2022-12-29T17:11:19;12.02;;;2.67;;
68457;SDS011;65384;52.016;5.428;2022-12-29T17:17:05;8.70;;;1.60;;
68457;SDS011;65384;52.016;5.428;2022-12-29T17:19:46;10.48;;;1.70;;
68457;SDS011;65384;52.016;5.428;2022-12-29T17:22:21;6.75;;;1.50;;
68457;SDS011;65384;52.016;5.428;2022-12-29T17:24:49;6.55;;;1.65;;
68457;SDS011;65384;52.016;5.428;2022-12-29T17:27:20;11.88;;;1.58;;
68457;SDS011;65384;52.016;5.428;2022-12-29T17:29:47;9.40;;;1.50;;
68457;SDS011;65384;52.016;5.428;2022-12-29T17:32:13;8.13;;;1.67;;